Time;durP1;ratioP1;P1;durP2;ratioP2;P2;SDS_P1;SDS_P2;PMS_P1;PMS_P2;Temp;Humidity;BMP_temperature;BMP_pressure;BME280_temperature;BME280_humidity;BME280_pressure;Samples;Min_cycle;Max_cycle;Signal;HPM_P1;HPM_P2
2022/06/20 06:25:59;;;;;;;1.52;1.42;;;19.80;56.20;;;;;;6383868;22;20138;-91
2022/06/20 06:29:31;;;;;;;;;;;;;;;;;;;;;
2022/06/20 06:46:35;;;;;;;;;;;;;;;;;;;;;
2022/06/20 07:17:18;;;;;;;1.55;1.45;;;19.90;56.10;;;;;;5881069;24;20202;-91
2022/06/20 07:20:45;;;;;;;;;;;;;;;;;;;;;
2022/06/20 07:24:09;;;;;;;;;;;;;;;;;;;;;
2022/06/20 07:30:55;;;;;;;2.75;1.40;;;19.90;56.50;;;;;;5828043;24;20254;-90
2022/06/20 07:34:09;;;;;;;1.55;1.40;;;19.90;56.50;;;;;;5829433;24;20186;-90
2022/06/20 08:10:24;;;;;;;;;;;;;;;;;;;;;
2022/06/20 08:23:30;;;;;;;2.10;1.90;;;19.90;57.30;;;;;;5990228;24;20167;-91
2022/06/20 08:26:28;;;;;;;1.90;1.80;;;19.90;57.40;;;;;;5932423;24;20217;-91
2022/06/20 08:29:27;;;;;;;2.20;2.00;;;20.00;57.60;;;;;;5875669;24;20194;-91
2022/06/20 08:32:52;;;;;;;2.00;1.80;;;20.00;57.50;;;;;;5876901;24;20238;-91
2022/06/20 08:36:11;;;;;;;2.90;2.30;;;19.90;57.20;;;;;;5847817;24;20173;-90
2022/06/20 08:58:36;;;;;;;2.83;2.40;;;19.90;58.20;;;;;;5743187;25;20185;-90
2022/06/20 09:50:36;;;;;;;4.85;3.05;;;20.10;59.70;;;;;;6246753;22;20247;-91
2022/06/20 09:53:53;;;;;;;4.28;2.90;;;20.10;60.10;;;;;;6330078;22;20204;-92
2022/06/20 09:56:53;;;;;;;5.55;2.60;;;20.00;60.10;;;;;;6351102;22;20206;-90
2022/06/20 09:59:39;;;;;;;2.90;2.60;;;20.00;60.30;;;;;;6350443;22;20138;-90
2022/06/20 10:02:24;;;;;;;3.55;2.85;;;20.00;60.70;;;;;;6256796;22;20148;-89
2022/06/20 10:05:02;;;;;;;3.78;3.03;;;20.00;61.40;;;;;;6232461;22;20199;-91
2022/06/20 10:07:56;;;;;;;3.53;3.03;;;20.00;60.50;;;;;;6169262;23;20154;-90
2022/06/20 10:10:45;;;;;;;3.35;3.00;;;20.10;60.80;;;;;;6157345;23;20242;-90
2022/06/20 10:14:04;;;;;;;3.33;2.80;;;20.00;60.90;;;;;;6158810;23;20155;-91
2022/06/20 10:17:50;;;;;;;;;;;;;;;;;;;;;
2022/06/20 10:24:34;;;;;;;;;;;;;;;;;;;;;
2022/06/20 10:27:55;;;;;;;3.28;2.80;;;19.90;60.50;;;;;;5952619;24;20572;-91
2022/06/20 10:31:39;;;;;;;4.05;3.13;;;19.90;61.10;;;;;;5907157;24;20169;-89
2022/06/20 10:34:12;;;;;;;3.40;3.00;;;19.90;61.20;;;;;;5879154;24;20177;-90
2022/06/20 10:44:30;;;;;;;;;;;;;;;;;;;;;
2022/06/20 10:48:13;;;;;;;;;;;;;;;;;;;;;
2022/06/20 10:57:54;;;;;;;7.75;3.00;;;20.00;60.90;;;;;;5797797;24;20163;-90
2022/06/20 11:04:52;;;;;;;4.30;2.92;;;20.00;61.20;;;;;;5966990;23;20233;-91
2022/06/20 11:07:57;;;;;;;4.93;2.63;;;20.00;61.10;;;;;;6018363;23;20220;-91
2022/06/20 11:11:12;;;;;;;3.22;2.65;;;20.10;61.00;;;;;;6025632;23;20226;-90
2022/06/20 11:15:07;;;;;;;3.35;2.50;;;20.10;60.80;;;;;;5991262;24;20152;-91
2022/06/20 11:22:14;;;;;;;3.42;2.70;;;20.00;60.80;;;;;;5964053;24;20160;-91
2022/06/20 11:28:59;;;;;;;;;;;;;;;;;;;;;
2022/06/20 12:04:39;;;;;;;3.72;3.00;;;20.00;61.10;;;;;;6277828;22;20533;-89
2022/06/20 12:07:44;;;;;;;;;;;;;;;;;;;;;
2022/06/20 12:11:04;;;;;;;;;;;;;;;;;;;;;
2022/06/20 12:14:30;;;;;;;4.78;2.60;;;19.90;61.40;;;;;;5987235;24;20189;-90
2022/06/20 12:17:53;;;;;;;4.07;2.80;;;19.90;61.40;;;;;;6002785;23;20174;-90
2022/06/20 12:31:27;;;;;;;3.45;2.83;;;20.00;61.40;;;;;;5077292;28;20500;-90
2022/06/20 12:34:11;;;;;;;5.07;2.50;;;20.00;61.60;;;;;;5056387;28;20578;-90
2022/06/20 12:37:00;;;;;;;3.70;2.80;;;20.00;61.90;;;;;;5060364;28;20284;-89
2022/06/20 12:39:38;;;;;;;3.17;2.70;;;20.00;62.00;;;;;;5038098;28;20189;-91
2022/06/20 12:42:13;;;;;;;3.30;2.53;;;20.00;62.30;;;;;;5018494;28;20278;-91
2022/06/20 12:44:57;;;;;;;4.13;2.75;;;20.10;62.50;;;;;;5000701;28;20257;-89
2022/06/20 12:47:38;;;;;;;3.28;2.63;;;20.10;62.00;;;;;;5001925;28;20676;-90
2022/06/20 12:50:27;;;;;;;4.10;2.60;;;20.00;62.20;;;;;;5002169;28;20215;-91
2022/06/20 12:53:17;;;;;;;3.58;2.70;;;20.10;62.30;;;;;;5034214;28;20163;-92
2022/06/20 12:56:16;;;;;;;5.05;2.85;;;20.10;62.20;;;;;;5018431;28;20174;-89
2022/06/20 12:59:11;;;;;;;3.40;2.90;;;20.10;62.00;;;;;;5004539;28;20221;-90
2022/06/20 13:01:46;;;;;;;3.42;2.70;;;20.10;62.10;;;;;;5037284;28;20186;-91
2022/06/20 13:04:51;;;;;;;3.47;2.88;;;20.00;62.30;;;;;;5035959;28;20182;-90
2022/06/20 13:07:28;;;;;;;4.20;2.70;;;20.10;62.40;;;;;;5030845;28;20190;-90
2022/06/20 13:10:43;;;;;;;3.00;2.58;;;20.10;62.10;;;;;;5016435;28;20276;-90
2022/06/20 13:13:35;;;;;;;5.07;2.67;;;20.10;61.80;;;;;;5072357;28;20190;-89
2022/06/20 13:23:36;;;;;;;3.90;2.88;;;20.10;62.00;;;;;;5079972;28;20196;-91
